sensor_id;sensor_type;location;lat;lon;timestamp;P1;durP1;ratioP1;P2;durP2;ratioP2
3343;SDS011;1685;53.104;8.228;2023-08-30T00:02:05;152.07;;;14.43;;
3343;SDS011;1685;53.104;8.228;2023-08-30T00:04:34;12.07;;;7.53;;
3343;SDS011;1685;53.104;8.228;2023-08-30T00:07:01;10.43;;;7.10;;
3343;SDS011;1685;53.104;8.228;2023-08-30T00:09:29;8.03;;;7.07;;
3343;SDS011;1685;53.104;8.228;2023-08-30T00:11:56;9.23;;;6.70;;
3343;SDS011;1685;53.104;8.228;2023-08-30T00:14:23;9.20;;;6.97;;
3343;SDS011;1685;53.104;8.228;2023-08-30T00:16:52;8.70;;;6.77;;
3343;SDS011;1685;53.104;8.228;2023-08-30T00:19:18;7.33;;;6.17;;
3343;SDS011;1685;53.104;8.228;2023-08-30T00:21:45;8.33;;;7.43;;
3343;SDS011;1685;53.104;8.228;2023-08-30T00:24:12;12.40;;;7.00;;
3343;SDS011;1685;53.104;8.228;2023-08-30T00:26:40;7.13;;;6.53;;
3343;SDS011;1685;53.104;8.228;2023-08-30T00:29:07;10.80;;;7.30;;
3343;SDS011;1685;53.104;8.228;2023-08-30T00:31:34;6.87;;;6.17;;
3343;SDS011;1685;53.104;8.228;2023-08-30T00:34:02;6.83;;;6.23;;
3343;SDS011;1685;53.104;8.228;2023-08-30T00:36:29;6.93;;;6.37;;
3343;SDS011;1685;53.104;8.228;2023-08-30T00:38:56;7.47;;;6.77;;
3343;SDS011;1685;53.104;8.228;2023-08-30T00:41:23;7.07;;;6.37;;
3343;SDS011;1685;53.104;8.228;2023-08-30T00:43:50;12.30;;;6.30;;
3343;SDS011;1685;53.104;8.228;2023-08-30T00:46:17;6.50;;;5.73;;
3343;SDS011;1685;53.104;8.228;2023-08-30T00:48:44;7.53;;;6.43;;
3343;SDS011;1685;53.104;8.228;2023-08-30T00:51:13;7.83;;;6.40;;
3343;SDS011;1685;53.104;8.228;2023-08-30T00:53:40;11.53;;;5.63;;
3343;SDS011;1685;53.104;8.228;2023-08-30T00:56:07;6.90;;;6.10;;
3343;SDS011;1685;53.104;8.228;2023-08-30T00:58:34;6.97;;;5.47;;
3343;SDS011;1685;53.104;8.228;2023-08-30T01:01:01;6.17;;;5.53;;
3343;SDS011;1685;53.104;8.228;2023-08-30T01:03:29;9.00;;;5.53;;
3343;SDS011;1685;53.104;8.228;2023-08-30T01:05:56;6.17;;;5.67;;
3343;SDS011;1685;53.104;8.228;2023-08-30T01:08:25;7.13;;;5.37;;
3343;SDS011;1685;53.104;8.228;2023-08-30T01:10:53;6.60;;;5.87;;
3343;SDS011;1685;53.104;8.228;2023-08-30T01:13:28;6.10;;;5.60;;
3343;SDS011;1685;53.104;8.228;2023-08-30T01:15:59;5.40;;;4.93;;
3343;SDS011;1685;53.104;8.228;2023-08-30T01:18:28;5.67;;;5.27;;
3343;SDS011;1685;53.104;8.228;2023-08-30T01:20:58;6.67;;;5.60;;
3343;SDS011;1685;53.104;8.228;2023-08-30T01:23:33;6.30;;;5.70;;
3343;SDS011;1685;53.104;8.228;2023-08-30T01:26:08;6.57;;;5.57;;
3343;SDS011;1685;53.104;8.228;2023-08-30T01:28:40;5.20;;;4.70;;
3343;SDS011;1685;53.104;8.228;2023-08-30T01:31:07;6.43;;;5.10;;
3343;SDS011;1685;53.104;8.228;2023-08-30T01:33:36;13.70;;;5.60;;
3343;SDS011;1685;53.104;8.228;2023-08-30T01:36:05;5.00;;;4.53;;
3343;SDS011;1685;53.104;8.228;2023-08-30T01:38:32;5.53;;;5.00;;
3343;SDS011;1685;53.104;8.228;2023-08-30T01:41:01;6.63;;;5.77;;
3343;SDS011;1685;53.104;8.228;2023-08-30T01:43:28;6.60;;;4.80;;
3343;SDS011;1685;53.104;8.228;2023-08-30T01:45:58;11.90;;;5.00;;
3343;SDS011;1685;53.104;8.228;2023-08-30T01:48:26;5.57;;;5.13;;
3343;SDS011;1685;53.104;8.228;2023-08-30T01:50:54;5.33;;;4.93;;
3343;SDS011;1685;53.104;8.228;2023-08-30T01:53:24;6.70;;;5.43;;
3343;SDS011;1685;53.104;8.228;2023-08-30T01:55:51;5.90;;;5.40;;
3343;SDS011;1685;53.104;8.228;2023-08-30T01:58:18;5.07;;;4.67;;
3343;SDS011;1685;53.104;8.228;2023-08-30T02:00:46;6.17;;;5.13;;
3343;SDS011;1685;53.104;8.228;2023-08-30T02:03:14;5.80;;;5.20;;
3343;SDS011;1685;53.104;8.228;2023-08-30T02:05:43;5.83;;;5.33;;
3343;SDS011;1685;53.104;8.228;2023-08-30T02:08:16;7.47;;;5.43;;
3343;SDS011;1685;53.104;8.228;2023-08-30T02:10:52;17.63;;;5.70;;
3343;SDS011;1685;53.104;8.228;2023-08-30T02:13:25;26.27;;;7.10;;
3343;SDS011;1685;53.104;8.228;2023-08-30T02:15:54;6.30;;;5.67;;
3343;SDS011;1685;53.104;8.228;2023-08-30T02:18:24;6.80;;;5.93;;
3343;SDS011;1685;53.104;8.228;2023-08-30T02:20:52;6.20;;;5.70;;
3343;SDS011;1685;53.104;8.228;2023-08-30T02:23:22;6.37;;;5.73;;
3343;SDS011;1685;53.104;8.228;2023-08-30T02:25:50;7.23;;;6.10;;
3343;SDS011;1685;53.104;8.228;2023-08-30T02:28:17;6.90;;;5.83;;
3343;SDS011;1685;53.104;8.228;2023-08-30T02:30:44;6.97;;;6.10;;
3343;SDS011;1685;53.104;8.228;2023-08-30T02:33:11;6.03;;;5.50;;
3343;SDS011;1685;53.104;8.228;2023-08-30T02:35:40;6.50;;;6.00;;
3343;SDS011;1685;53.104;8.228;2023-08-30T02:38:06;7.03;;;5.80;;
3343;SDS011;1685;53.104;8.228;2023-08-30T02:40:34;7.93;;;6.80;;
3343;SDS011;1685;53.104;8.228;2023-08-30T02:43:01;6.27;;;5.77;;
3343;SDS011;1685;53.104;8.228;2023-08-30T02:45:28;6.60;;;6.10;;
3343;SDS011;1685;53.104;8.228;2023-08-30T02:47:55;6.00;;;5.50;;
3343;SDS011;1685;53.104;8.228;2023-08-30T02:50:22;9.60;;;6.20;;
3343;SDS011;1685;53.104;8.228;2023-08-30T02:52:51;13.13;;;5.90;;
3343;SDS011;1685;53.104;8.228;2023-08-30T02:55:17;8.53;;;6.00;;
3343;SDS011;1685;53.104;8.228;2023-08-30T02:57:45;6.80;;;6.10;;
3343;SDS011;1685;53.104;8.228;2023-08-30T03:00:13;6.60;;;6.00;;
3343;SDS011;1685;53.104;8.228;2023-08-30T03:02:41;7.10;;;6.40;;
3343;SDS011;1685;53.104;8.228;2023-08-30T03:05:08;8.43;;;6.10;;
3343;SDS011;1685;53.104;8.228;2023-08-30T03:07:37;7.97;;;6.97;;
3343;SDS011;1685;53.104;8.228;2023-08-30T03:10:05;7.37;;;6.60;;
3343;SDS011;1685;53.104;8.228;2023-08-30T03:12:33;8.77;;;6.87;;
3343;SDS011;1685;53.104;8.228;2023-08-30T03:15:00;8.20;;;7.40;;
3343;SDS011;1685;53.104;8.228;2023-08-30T03:17:27;7.80;;;7.10;;
3343;SDS011;1685;53.104;8.228;2023-08-30T03:19:54;8.20;;;7.50;;
3343;SDS011;1685;53.104;8.228;2023-08-30T03:22:21;8.53;;;7.67;;
3343;SDS011;1685;53.104;8.228;2023-08-30T03:24:48;8.00;;;7.20;;
3343;SDS011;1685;53.104;8.228;2023-08-30T03:27:17;8.27;;;7.40;;
3343;SDS011;1685;53.104;8.228;2023-08-30T03:29:44;8.63;;;7.87;;
3343;SDS011;1685;53.104;8.228;2023-08-30T03:32:14;7.27;;;6.67;;
3343;SDS011;1685;53.104;8.228;2023-08-30T03:34:43;8.27;;;7.53;;
3343;SDS011;1685;53.104;8.228;2023-08-30T03:37:10;11.13;;;8.30;;
3343;SDS011;1685;53.104;8.228;2023-08-30T03:39:37;9.60;;;8.00;;
3343;SDS011;1685;53.104;8.228;2023-08-30T03:42:04;12.80;;;8.47;;
3343;SDS011;1685;53.104;8.228;2023-08-30T03:44:33;9.03;;;8.10;;
3343;SDS011;1685;53.104;8.228;2023-08-30T03:47:00;8.77;;;7.97;;
3343;SDS011;1685;53.104;8.228;2023-08-30T03:49:27;13.40;;;8.50;;
3343;SDS011;1685;53.104;8.228;2023-08-30T03:51:54;10.60;;;9.50;;
3343;SDS011;1685;53.104;8.228;2023-08-30T03:54:22;11.27;;;9.30;;
3343;SDS011;1685;53.104;8.228;2023-08-30T03:56:49;14.23;;;10.20;;
3343;SDS011;1685;53.104;8.228;2023-08-30T03:59:16;13.37;;;8.97;;
3343;SDS011;1685;53.104;8.228;2023-08-30T04:01:44;12.10;;;9.90;;
3343;SDS011;1685;53.104;8.228;2023-08-30T04:04:11;9.53;;;8.60;;
3343;SDS011;1685;53.104;8.228;2023-08-30T04:06:39;14.40;;;11.10;;
3343;SDS011;1685;53.104;8.228;2023-08-30T04:09:06;132.33;;;14.97;;
3343;SDS011;1685;53.104;8.228;2023-08-30T04:11:35;15.40;;;11.33;;
3343;SDS011;1685;53.104;8.228;2023-08-30T04:14:02;13.80;;;12.40;;
3343;SDS011;1685;53.104;8.228;2023-08-30T04:16:29;12.73;;;11.33;;
3343;SDS011;1685;53.104;8.228;2023-08-30T04:18:57;13.70;;;12.30;;
3343;SDS011;1685;53.104;8.228;2023-08-30T04:21:24;18.00;;;13.27;;
3343;SDS011;1685;53.104;8.228;2023-08-30T04:23:51;17.00;;;13.67;;
3343;SDS011;1685;53.104;8.228;2023-08-30T04:26:18;18.17;;;15.03;;
3343;SDS011;1685;53.104;8.228;2023-08-30T04:28:46;16.77;;;13.17;;
3343;SDS011;1685;53.104;8.228;2023-08-30T04:31:13;19.50;;;13.40;;
3343;SDS011;1685;53.104;8.228;2023-08-30T04:33:40;19.27;;;12.83;;
3343;SDS011;1685;53.104;8.228;2023-08-30T04:36:08;15.80;;;12.87;;
3343;SDS011;1685;53.104;8.228;2023-08-30T04:38:35;22.30;;;13.93;;
3343;SDS011;1685;53.104;8.228;2023-08-30T04:41:02;16.03;;;13.03;;
3343;SDS011;1685;53.104;8.228;2023-08-30T04:43:29;21.37;;;13.20;;
3343;SDS011;1685;53.104;8.228;2023-08-30T04:45:56;17.47;;;13.80;;
3343;SDS011;1685;53.104;8.228;2023-08-30T04:48:23;17.17;;;12.53;;
3343;SDS011;1685;53.104;8.228;2023-08-30T04:50:57;18.40;;;14.70;;
3343;SDS011;1685;53.104;8.228;2023-08-30T04:53:26;14.93;;;13.33;;
3343;SDS011;1685;53.104;8.228;2023-08-30T04:55:53;17.93;;;12.47;;
3343;SDS011;1685;53.104;8.228;2023-08-30T04:58:20;18.50;;;14.90;;
3343;SDS011;1685;53.104;8.228;2023-08-30T05:00:47;17.83;;;14.17;;
3343;SDS011;1685;53.104;8.228;2023-08-30T05:03:14;20.03;;;15.10;;
3343;SDS011;1685;53.104;8.228;2023-08-30T05:05:44;16.80;;;14.17;;
3343;SDS011;1685;53.104;8.228;2023-08-30T05:08:11;20.17;;;14.67;;
3343;SDS011;1685;53.104;8.228;2023-08-30T05:10:40;21.93;;;15.30;;
3343;SDS011;1685;53.104;8.228;2023-08-30T05:13:08;17.97;;;15.70;;
3343;SDS011;1685;53.104;8.228;2023-08-30T05:15:35;21.40;;;16.87;;
3343;SDS011;1685;53.104;8.228;2023-08-30T05:18:03;19.73;;;15.77;;
3343;SDS011;1685;53.104;8.228;2023-08-30T05:20:30;25.97;;;17.07;;
3343;SDS011;1685;53.104;8.228;2023-08-30T05:22:57;21.07;;;16.23;;
3343;SDS011;1685;53.104;8.228;2023-08-30T05:25:24;21.80;;;17.13;;
3343;SDS011;1685;53.104;8.228;2023-08-30T05:27:53;21.80;;;16.23;;
3343;SDS011;1685;53.104;8.228;2023-08-30T05:30:19;27.43;;;16.30;;
3343;SDS011;1685;53.104;8.228;2023-08-30T05:32:47;27.37;;;19.33;;
3343;SDS011;1685;53.104;8.228;2023-08-30T05:35:14;23.07;;;18.27;;
3343;SDS011;1685;53.104;8.228;2023-08-30T05:37:41;26.17;;;18.67;;
3343;SDS011;1685;53.104;8.228;2023-08-30T05:40:08;23.60;;;17.80;;
3343;SDS011;1685;53.104;8.228;2023-08-30T05:42:35;23.97;;;19.43;;
3343;SDS011;1685;53.104;8.228;2023-08-30T05:45:05;25.90;;;17.63;;
3343;SDS011;1685;53.104;8.228;2023-08-30T05:47:32;25.37;;;18.33;;
3343;SDS011;1685;53.104;8.228;2023-08-30T05:49:59;25.40;;;19.13;;
3343;SDS011;1685;53.104;8.228;2023-08-30T05:52:26;28.30;;;19.73;;
3343;SDS011;1685;53.104;8.228;2023-08-30T05:54:53;32.17;;;19.50;;
3343;SDS011;1685;53.104;8.228;2023-08-30T05:57:20;25.60;;;19.37;;
3343;SDS011;1685;53.104;8.228;2023-08-30T05:59:49;27.47;;;18.80;;
3343;SDS011;1685;53.104;8.228;2023-08-30T06:02:18;23.87;;;18.40;;
3343;SDS011;1685;53.104;8.228;2023-08-30T06:04:45;42.07;;;19.60;;
3343;SDS011;1685;53.104;8.228;2023-08-30T06:07:12;21.20;;;17.30;;
3343;SDS011;1685;53.104;8.228;2023-08-30T06:09:39;21.50;;;18.33;;
3343;SDS011;1685;53.104;8.228;2023-08-30T06:12:06;23.03;;;18.10;;
3343;SDS011;1685;53.104;8.228;2023-08-30T06:14:33;23.40;;;17.83;;
3343;SDS011;1685;53.104;8.228;2023-08-30T06:17:00;25.50;;;17.67;;
3343;SDS011;1685;53.104;8.228;2023-08-30T06:19:29;24.67;;;17.60;;
3343;SDS011;1685;53.104;8.228;2023-08-30T06:21:56;27.30;;;19.73;;
3343;SDS011;1685;53.104;8.228;2023-08-30T06:24:23;24.93;;;18.67;;
3343;SDS011;1685;53.104;8.228;2023-08-30T06:26:50;22.13;;;17.93;;
3343;SDS011;1685;53.104;8.228;2023-08-30T06:29:18;21.27;;;17.43;;
3343;SDS011;1685;53.104;8.228;2023-08-30T06:31:45;28.93;;;19.30;;
3343;SDS011;1685;53.104;8.228;2023-08-30T06:34:12;23.77;;;17.50;;
3343;SDS011;1685;53.104;8.228;2023-08-30T06:36:40;31.07;;;19.90;;
3343;SDS011;1685;53.104;8.228;2023-08-30T06:39:07;23.80;;;16.53;;
3343;SDS011;1685;53.104;8.228;2023-08-30T06:41:34;21.23;;;17.27;;
3343;SDS011;1685;53.104;8.228;2023-08-30T06:44:01;24.47;;;17.67;;
3343;SDS011;1685;53.104;8.228;2023-08-30T06:46:29;28.90;;;18.27;;
3343;SDS011;1685;53.104;8.228;2023-08-30T06:48:56;30.43;;;18.97;;
3343;SDS011;1685;53.104;8.228;2023-08-30T06:51:23;24.63;;;17.97;;
3343;SDS011;1685;53.104;8.228;2023-08-30T06:53:51;22.67;;;17.70;;
3343;SDS011;1685;53.104;8.228;2023-08-30T06:56:20;20.63;;;16.37;;
3343;SDS011;1685;53.104;8.228;2023-08-30T06:58:47;25.57;;;16.47;;
3343;SDS011;1685;53.104;8.228;2023-08-30T07:01:14;22.30;;;16.47;;
3343;SDS011;1685;53.104;8.228;2023-08-30T07:03:41;18.37;;;15.50;;
3343;SDS011;1685;53.104;8.228;2023-08-30T07:06:09;24.37;;;15.90;;
3343;SDS011;1685;53.104;8.228;2023-08-30T07:08:36;17.83;;;14.60;;
3343;SDS011;1685;53.104;8.228;2023-08-30T07:11:04;20.40;;;14.63;;
3343;SDS011;1685;53.104;8.228;2023-08-30T07:13:31;22.27;;;15.13;;
3343;SDS011;1685;53.104;8.228;2023-08-30T07:15:58;20.40;;;14.30;;
3343;SDS011;1685;53.104;8.228;2023-08-30T07:18:25;16.27;;;14.27;;
3343;SDS011;1685;53.104;8.228;2023-08-30T07:20:52;17.20;;;13.07;;
3343;SDS011;1685;53.104;8.228;2023-08-30T07:23:19;15.57;;;11.73;;
3343;SDS011;1685;53.104;8.228;2023-08-30T07:25:46;14.50;;;13.00;;
3343;SDS011;1685;53.104;8.228;2023-08-30T07:28:15;18.20;;;11.50;;
3343;SDS011;1685;53.104;8.228;2023-08-30T07:30:41;21.10;;;12.13;;
3343;SDS011;1685;53.104;8.228;2023-08-30T07:33:09;15.23;;;11.50;;
3343;SDS011;1685;53.104;8.228;2023-08-30T07:35:36;15.33;;;11.50;;
3343;SDS011;1685;53.104;8.228;2023-08-30T07:38:04;19.03;;;10.53;;
3343;SDS011;1685;53.104;8.228;2023-08-30T07:40:31;13.10;;;10.97;;
3343;SDS011;1685;53.104;8.228;2023-08-30T07:42:58;16.23;;;11.80;;
3343;SDS011;1685;53.104;8.228;2023-08-30T07:45:26;11.50;;;9.00;;
3343;SDS011;1685;53.104;8.228;2023-08-30T07:47:53;11.70;;;9.83;;
3343;SDS011;1685;53.104;8.228;2023-08-30T07:50:20;10.90;;;9.00;;
3343;SDS011;1685;53.104;8.228;2023-08-30T07:52:47;10.53;;;9.07;;
3343;SDS011;1685;53.104;8.228;2023-08-30T07:55:14;14.13;;;9.23;;
3343;SDS011;1685;53.104;8.228;2023-08-30T07:57:42;10.67;;;9.50;;
3343;SDS011;1685;53.104;8.228;2023-08-30T08:00:09;10.40;;;9.30;;
3343;SDS011;1685;53.104;8.228;2023-08-30T08:02:38;11.73;;;9.90;;
3343;SDS011;1685;53.104;8.228;2023-08-30T08:05:05;10.20;;;9.17;;
3343;SDS011;1685;53.104;8.228;2023-08-30T08:07:33;8.30;;;7.50;;
3343;SDS011;1685;53.104;8.228;2023-08-30T08:10:00;10.80;;;8.87;;
3343;SDS011;1685;53.104;8.228;2023-08-30T08:12:27;15.10;;;8.70;;
3343;SDS011;1685;53.104;8.228;2023-08-30T08:14:54;11.80;;;8.67;;
3343;SDS011;1685;53.104;8.228;2023-08-30T08:17:21;9.17;;;8.27;;
3343;SDS011;1685;53.104;8.228;2023-08-30T08:19:50;10.07;;;8.03;;
3343;SDS011;1685;53.104;8.228;2023-08-30T08:22:16;8.83;;;7.70;;
3343;SDS011;1685;53.104;8.228;2023-08-30T08:24:43;9.10;;;8.20;;
3343;SDS011;1685;53.104;8.228;2023-08-30T08:27:11;9.70;;;8.33;;
3343;SDS011;1685;53.104;8.228;2023-08-30T08:29:39;11.43;;;8.83;;
3343;SDS011;1685;53.104;8.228;2023-08-30T08:32:06;8.37;;;7.57;;
3343;SDS011;1685;53.104;8.228;2023-08-30T08:34:33;10.50;;;8.20;;
3343;SDS011;1685;53.104;8.228;2023-08-30T08:37:02;9.30;;;7.87;;
3343;SDS011;1685;53.104;8.228;2023-08-30T08:39:30;9.90;;;8.27;;
3343;SDS011;1685;53.104;8.228;2023-08-30T08:41:56;8.90;;;8.00;;
3343;SDS011;1685;53.104;8.228;2023-08-30T08:44:26;8.50;;;7.60;;
3343;SDS011;1685;53.104;8.228;2023-08-30T08:46:57;9.37;;;8.47;;
3343;SDS011;1685;53.104;8.228;2023-08-30T08:49:24;8.67;;;7.70;;
3343;SDS011;1685;53.104;8.228;2023-08-30T08:51:53;7.60;;;6.80;;
3343;SDS011;1685;53.104;8.228;2023-08-30T08:54:22;16.27;;;8.40;;
3343;SDS011;1685;53.104;8.228;2023-08-30T08:56:49;7.87;;;6.70;;
3343;SDS011;1685;53.104;8.228;2023-08-30T08:59:16;10.90;;;7.03;;
3343;SDS011;1685;53.104;8.228;2023-08-30T09:01:43;8.60;;;7.20;;
3343;SDS011;1685;53.104;8.228;2023-08-30T09:04:11;11.13;;;7.43;;
3343;SDS011;1685;53.104;8.228;2023-08-30T09:06:38;8.87;;;6.97;;
3343;SDS011;1685;53.104;8.228;2023-08-30T09:09:06;10.60;;;8.90;;
3343;SDS011;1685;53.104;8.228;2023-08-30T09:11:34;9.27;;;7.30;;
3343;SDS011;1685;53.104;8.228;2023-08-30T09:14:01;10.47;;;7.43;;
3343;SDS011;1685;53.104;8.228;2023-08-30T09:16:28;8.30;;;7.00;;
3343;SDS011;1685;53.104;8.228;2023-08-30T09:18:59;10.33;;;7.27;;
3343;SDS011;1685;53.104;8.228;2023-08-30T09:21:25;9.23;;;7.10;;
3343;SDS011;1685;53.104;8.228;2023-08-30T09:23:56;10.53;;;7.40;;
3343;SDS011;1685;53.104;8.228;2023-08-30T09:26:24;9.90;;;7.60;;
3343;SDS011;1685;53.104;8.228;2023-08-30T09:28:52;13.60;;;8.23;;
3343;SDS011;1685;53.104;8.228;2023-08-30T09:31:19;9.70;;;7.30;;
3343;SDS011;1685;53.104;8.228;2023-08-30T09:33:46;8.70;;;7.47;;
3343;SDS011;1685;53.104;8.228;2023-08-30T09:36:14;13.13;;;7.57;;
3343;SDS011;1685;53.104;8.228;2023-08-30T09:38:41;8.77;;;7.00;;
3343;SDS011;1685;53.104;8.228;2023-08-30T09:41:08;7.93;;;7.00;;
3343;SDS011;1685;53.104;8.228;2023-08-30T09:43:41;9.97;;;6.80;;
3343;SDS011;1685;53.104;8.228;2023-08-30T09:46:09;9.10;;;7.20;;
3343;SDS011;1685;53.104;8.228;2023-08-30T09:48:37;9.60;;;8.20;;
3343;SDS011;1685;53.104;8.228;2023-08-30T09:51:05;13.50;;;7.50;;
3343;SDS011;1685;53.104;8.228;2023-08-30T09:53:36;20.30;;;7.80;;
3343;SDS011;1685;53.104;8.228;2023-08-30T09:56:09;8.17;;;6.77;;
3343;SDS011;1685;53.104;8.228;2023-08-30T09:58:40;8.47;;;7.40;;
3343;SDS011;1685;53.104;8.228;2023-08-30T10:01:09;11.80;;;8.57;;
3343;SDS011;1685;53.104;8.228;2023-08-30T10:03:37;12.83;;;9.17;;
3343;SDS011;1685;53.104;8.228;2023-08-30T10:06:05;12.63;;;8.60;;
3343;SDS011;1685;53.104;8.228;2023-08-30T10:08:33;10.60;;;9.27;;
3343;SDS011;1685;53.104;8.228;2023-08-30T10:11:02;11.73;;;9.70;;
3343;SDS011;1685;53.104;8.228;2023-08-30T10:13:29;12.17;;;9.20;;
3343;SDS011;1685;53.104;8.228;2023-08-30T10:15:58;11.77;;;8.90;;
3343;SDS011;1685;53.104;8.228;2023-08-30T10:18:31;10.13;;;8.30;;
3343;SDS011;1685;53.104;8.228;2023-08-30T10:20:59;13.07;;;9.30;;
3343;SDS011;1685;53.104;8.228;2023-08-30T10:23:33;9.93;;;8.33;;
3343;SDS011;1685;53.104;8.228;2023-08-30T10:26:01;17.17;;;9.10;;
3343;SDS011;1685;53.104;8.228;2023-08-30T10:28:31;13.57;;;9.47;;
3343;SDS011;1685;53.104;8.228;2023-08-30T10:30:58;15.33;;;9.40;;
3343;SDS011;1685;53.104;8.228;2023-08-30T10:33:25;12.43;;;9.63;;
3343;SDS011;1685;53.104;8.228;2023-08-30T10:35:53;10.50;;;8.27;;
3343;SDS011;1685;53.104;8.228;2023-08-30T10:38:28;13.00;;;9.80;;
3343;SDS011;1685;53.104;8.228;2023-08-30T10:40:55;11.40;;;8.97;;
3343;SDS011;1685;53.104;8.228;2023-08-30T10:43:33;12.80;;;9.80;;
3343;SDS011;1685;53.104;8.228;2023-08-30T10:46:01;13.50;;;9.80;;
3343;SDS011;1685;53.104;8.228;2023-08-30T10:48:38;12.23;;;10.00;;
3343;SDS011;1685;53.104;8.228;2023-08-30T10:51:20;13.50;;;10.00;;
3343;SDS011;1685;53.104;8.228;2023-08-30T10:53:55;15.47;;;10.17;;
3343;SDS011;1685;53.104;8.228;2023-08-30T10:56:27;14.80;;;10.00;;
3343;SDS011;1685;53.104;8.228;2023-08-30T10:58:55;12.10;;;10.20;;
3343;SDS011;1685;53.104;8.228;2023-08-30T11:01:22;26.07;;;11.20;;
3343;SDS011;1685;53.104;8.228;2023-08-30T11:03:50;19.10;;;10.57;;
3343;SDS011;1685;53.104;8.228;2023-08-30T11:06:18;13.67;;;10.00;;
3343;SDS011;1685;53.104;8.228;2023-08-30T11:08:47;11.53;;;9.50;;
3343;SDS011;1685;53.104;8.228;2023-08-30T11:11:14;14.83;;;11.03;;
3343;SDS011;1685;53.104;8.228;2023-08-30T11:13:41;15.40;;;11.53;;
3343;SDS011;1685;53.104;8.228;2023-08-30T11:16:08;15.73;;;10.53;;
3343;SDS011;1685;53.104;8.228;2023-08-30T11:18:37;12.13;;;9.40;;
3343;SDS011;1685;53.104;8.228;2023-08-30T11:21:04;11.47;;;8.77;;
3343;SDS011;1685;53.104;8.228;2023-08-30T11:23:34;14.10;;;9.80;;
3343;SDS011;1685;53.104;8.228;2023-08-30T11:26:00;19.93;;;10.47;;
3343;SDS011;1685;53.104;8.228;2023-08-30T11:28:29;13.23;;;10.03;;
3343;SDS011;1685;53.104;8.228;2023-08-30T11:30:56;15.30;;;10.43;;
3343;SDS011;1685;53.104;8.228;2023-08-30T11:33:23;12.67;;;9.63;;
3343;SDS011;1685;53.104;8.228;2023-08-30T11:35:51;13.33;;;9.03;;
3343;SDS011;1685;53.104;8.228;2023-08-30T11:38:18;13.60;;;8.70;;
3343;SDS011;1685;53.104;8.228;2023-08-30T11:40:49;15.00;;;9.10;;
3343;SDS011;1685;53.104;8.228;2023-08-30T11:43:17;14.80;;;9.43;;
3343;SDS011;1685;53.104;8.228;2023-08-30T11:45:44;10.07;;;6.93;;
3343;SDS011;1685;53.104;8.228;2023-08-30T11:48:11;13.37;;;8.60;;
3343;SDS011;1685;53.104;8.228;2023-08-30T11:50:39;14.13;;;8.83;;
3343;SDS011;1685;53.104;8.228;2023-08-30T11:53:07;10.80;;;9.50;;
3343;SDS011;1685;53.104;8.228;2023-08-30T11:55:34;14.50;;;10.80;;
3343;SDS011;1685;53.104;8.228;2023-08-30T11:58:03;14.90;;;9.33;;
3343;SDS011;1685;53.104;8.228;2023-08-30T12:00:32;13.70;;;10.83;;
3343;SDS011;1685;53.104;8.228;2023-08-30T12:03:00;14.30;;;10.20;;
3343;SDS011;1685;53.104;8.228;2023-08-30T12:05:27;25.60;;;11.30;;
3343;SDS011;1685;53.104;8.228;2023-08-30T12:07:58;13.73;;;11.30;;
3343;SDS011;1685;53.104;8.228;2023-08-30T12:10:25;13.47;;;11.83;;
3343;SDS011;1685;53.104;8.228;2023-08-30T12:12:53;14.43;;;11.93;;
3343;SDS011;1685;53.104;8.228;2023-08-30T12:15:22;14.80;;;10.80;;
3343;SDS011;1685;53.104;8.228;2023-08-30T12:17:50;15.70;;;12.57;;
3343;SDS011;1685;53.104;8.228;2023-08-30T12:20:17;23.33;;;12.97;;
3343;SDS011;1685;53.104;8.228;2023-08-30T12:22:48;16.10;;;11.50;;
3343;SDS011;1685;53.104;8.228;2023-08-30T12:25:16;13.30;;;12.00;;
3343;SDS011;1685;53.104;8.228;2023-08-30T12:27:43;17.03;;;12.50;;
3343;SDS011;1685;53.104;8.228;2023-08-30T12:30:11;19.77;;;13.60;;
3343;SDS011;1685;53.104;8.228;2023-08-30T12:32:40;15.63;;;11.40;;
3343;SDS011;1685;53.104;8.228;2023-08-30T12:35:07;13.83;;;12.30;;
3343;SDS011;1685;53.104;8.228;2023-08-30T12:37:34;22.80;;;12.90;;
3343;SDS011;1685;53.104;8.228;2023-08-30T12:40:01;16.03;;;12.57;;
3343;SDS011;1685;53.104;8.228;2023-08-30T12:42:28;16.73;;;12.97;;
3343;SDS011;1685;53.104;8.228;2023-08-30T12:44:56;17.00;;;13.37;;
3343;SDS011;1685;53.104;8.228;2023-08-30T12:47:23;21.03;;;13.13;;
3343;SDS011;1685;53.104;8.228;2023-08-30T12:49:51;17.03;;;13.63;;
3343;SDS011;1685;53.104;8.228;2023-08-30T12:52:18;19.50;;;14.70;;
3343;SDS011;1685;53.104;8.228;2023-08-30T12:54:45;17.97;;;15.43;;
3343;SDS011;1685;53.104;8.228;2023-08-30T12:57:13;15.80;;;14.20;;
3343;SDS011;1685;53.104;8.228;2023-08-30T12:59:40;26.10;;;17.80;;
3343;SDS011;1685;53.104;8.228;2023-08-30T13:02:07;24.30;;;17.83;;
3343;SDS011;1685;53.104;8.228;2023-08-30T13:04:34;21.20;;;16.90;;
3343;SDS011;1685;53.104;8.228;2023-08-30T13:07:04;29.20;;;19.17;;
3343;SDS011;1685;53.104;8.228;2023-08-30T13:09:31;32.53;;;20.20;;
3343;SDS011;1685;53.104;8.228;2023-08-30T13:11:58;25.37;;;20.07;;
3343;SDS011;1685;53.104;8.228;2023-08-30T13:14:25;31.57;;;20.33;;
3343;SDS011;1685;53.104;8.228;2023-08-30T13:16:52;26.07;;;18.57;;
3343;SDS011;1685;53.104;8.228;2023-08-30T13:19:19;24.63;;;20.50;;
3343;SDS011;1685;53.104;8.228;2023-08-30T13:21:46;25.40;;;20.67;;
3343;SDS011;1685;53.104;8.228;2023-08-30T13:24:15;27.70;;;21.97;;
3343;SDS011;1685;53.104;8.228;2023-08-30T13:26:42;24.80;;;20.97;;
3343;SDS011;1685;53.104;8.228;2023-08-30T13:29:10;27.60;;;22.33;;
3343;SDS011;1685;53.104;8.228;2023-08-30T13:31:37;31.00;;;23.17;;
3343;SDS011;1685;53.104;8.228;2023-08-30T13:34:04;32.70;;;24.37;;
3343;SDS011;1685;53.104;8.228;2023-08-30T13:36:31;30.67;;;23.90;;
3343;SDS011;1685;53.104;8.228;2023-08-30T13:38:58;39.10;;;25.00;;
3343;SDS011;1685;53.104;8.228;2023-08-30T13:41:26;34.00;;;23.27;;
3343;SDS011;1685;53.104;8.228;2023-08-30T13:43:53;30.80;;;24.17;;
3343;SDS011;1685;53.104;8.228;2023-08-30T13:46:20;35.93;;;25.40;;
3343;SDS011;1685;53.104;8.228;2023-08-30T13:48:47;38.23;;;26.00;;
3343;SDS011;1685;53.104;8.228;2023-08-30T13:51:20;37.17;;;26.03;;
3343;SDS011;1685;53.104;8.228;2023-08-30T13:53:47;39.20;;;27.03;;
3343;SDS011;1685;53.104;8.228;2023-08-30T13:56:15;30.60;;;23.97;;
3343;SDS011;1685;53.104;8.228;2023-08-30T13:58:43;39.00;;;25.90;;
3343;SDS011;1685;53.104;8.228;2023-08-30T14:01:10;34.00;;;25.20;;
3343;SDS011;1685;53.104;8.228;2023-08-30T14:03:37;32.70;;;24.00;;
3343;SDS011;1685;53.104;8.228;2023-08-30T14:06:04;46.73;;;25.47;;
3343;SDS011;1685;53.104;8.228;2023-08-30T14:08:31;39.30;;;28.53;;
3343;SDS011;1685;53.104;8.228;2023-08-30T14:10:58;37.30;;;27.00;;
3343;SDS011;1685;53.104;8.228;2023-08-30T14:13:26;39.60;;;26.93;;
3343;SDS011;1685;53.104;8.228;2023-08-30T14:15:58;37.27;;;25.83;;
3343;SDS011;1685;53.104;8.228;2023-08-30T14:18:25;42.97;;;31.50;;
3343;SDS011;1685;53.104;8.228;2023-08-30T14:20:55;43.20;;;28.33;;
3343;SDS011;1685;53.104;8.228;2023-08-30T14:23:22;41.40;;;28.73;;
3343;SDS011;1685;53.104;8.228;2023-08-30T14:25:54;41.77;;;28.00;;
3343;SDS011;1685;53.104;8.228;2023-08-30T14:28:22;41.90;;;27.60;;
3343;SDS011;1685;53.104;8.228;2023-08-30T14:30:49;43.50;;;28.77;;
3343;SDS011;1685;53.104;8.228;2023-08-30T14:33:17;37.53;;;27.40;;
3343;SDS011;1685;53.104;8.228;2023-08-30T14:35:44;36.63;;;26.57;;
3343;SDS011;1685;53.104;8.228;2023-08-30T14:38:11;34.60;;;23.37;;
3343;SDS011;1685;53.104;8.228;2023-08-30T14:40:38;33.07;;;25.20;;
3343;SDS011;1685;53.104;8.228;2023-08-30T14:43:05;32.20;;;23.87;;
3343;SDS011;1685;53.104;8.228;2023-08-30T14:45:32;37.30;;;23.93;;
3343;SDS011;1685;53.104;8.228;2023-08-30T14:47:59;30.67;;;23.20;;
3343;SDS011;1685;53.104;8.228;2023-08-30T14:50:28;29.33;;;22.90;;
3343;SDS011;1685;53.104;8.228;2023-08-30T14:52:54;29.20;;;22.47;;
3343;SDS011;1685;53.104;8.228;2023-08-30T14:55:21;27.30;;;21.40;;
3343;SDS011;1685;53.104;8.228;2023-08-30T14:57:50;24.80;;;21.27;;
3343;SDS011;1685;53.104;8.228;2023-08-30T15:00:17;24.47;;;20.87;;
3343;SDS011;1685;53.104;8.228;2023-08-30T15:02:44;25.60;;;21.20;;